Time;durP1;ratioP1;P1;durP2;ratioP2;P2;SDS_P1;SDS_P2;PMS_P1;PMS_P2;Temp;Humidity;BMP_temperature;BMP_pressure;BME280_temperature;BME280_humidity;BME280_pressure;Samples;Min_cycle;Max_cycle;Signal;HPM_P1;HPM_P2
2021/04/23 00:00:56;;;;;;;15.90;2.97;;;;;;;9.28;100.00;102628.69;5052313;28;20037;-72
2021/04/23 00:03:25;;;;;;;18.38;4.15;;;;;;;9.28;100.00;102623.25;5052254;28;20036;-71
2021/04/23 00:05:54;;;;;;;15.77;3.00;;;;;;;9.27;100.00;102622.41;5052463;28;20459;-66
2021/04/23 00:08:22;;;;;;;17.92;3.10;;;;;;;9.26;100.00;102615.25;5052843;28;20051;-70
2021/04/23 00:10:49;;;;;;;16.98;2.53;;;;;;;9.28;100.00;102618.63;5052280;28;20399;-69
2021/04/23 00:13:15;;;;;;;14.52;2.85;;;;;;;9.29;100.00;102603.97;5050728;28;20502;-67
2021/04/23 00:15:42;;;;;;;16.33;3.08;;;;;;;9.28;100.00;102602.28;5052055;28;20045;-70
2021/04/23 00:18:08;;;;;;;19.80;2.70;;;;;;;9.30;100.00;102604.81;5052099;28;20257;-70
2021/04/23 00:20:35;;;;;;;13.93;3.00;;;;;;;9.30;100.00;102611.09;5051947;28;20055;-68
2021/04/23 00:23:04;;;;;;;18.00;2.90;;;;;;;9.30;100.00;102594.75;5050633;28;20045;-68
2021/04/23 00:25:30;;;;;;;14.93;2.78;;;;;;;9.30;100.00;102591.16;5050530;28;20032;-67
2021/04/23 00:27:59;;;;;;;12.00;2.70;;;;;;;9.31;100.00;102596.44;5050946;28;20052;-68
2021/04/23 00:30:28;;;;;;;15.30;3.00;;;;;;;9.32;100.00;102598.13;5051778;28;20051;-69
2021/04/23 00:32:54;;;;;;;15.30;3.10;;;;;;;9.32;100.00;102595.38;5051596;28;20025;-67
2021/04/23 00:35:26;;;;;;;12.68;2.83;;;;;;;9.32;100.00;102598.13;5051605;28;20041;-68
2021/04/23 00:37:55;;;;;;;9.68;2.08;;;;;;;9.31;100.00;102590.13;5051718;28;20047;-72
2021/04/23 00:40:24;;;;;;;19.20;3.65;;;;;;;9.30;100.00;102593.91;5051731;28;20080;-69
2021/04/23 00:42:50;;;;;;;16.90;2.60;;;;;;;9.30;100.00;102594.75;5051589;28;20025;-66
2021/04/23 00:45:23;;;;;;;9.80;2.05;;;;;;;9.30;100.00;102583.84;5051529;28;20056;-68
2021/04/23 00:47:51;;;;;;;10.48;2.88;;;;;;;9.29;100.00;102579.41;5051652;28;20036;-69
2021/04/23 00:50:37;;;;;;;15.98;3.83;;;;;;;9.29;100.00;102575.84;5051181;28;20415;-69
2021/04/23 00:53:04;;;;;;;14.77;2.53;;;;;;;9.29;100.00;102578.56;5051288;28;20514;-70
2021/04/23 00:55:30;;;;;;;14.23;3.10;;;;;;;9.28;100.00;102569.53;5051332;28;20115;-69
2021/04/23 00:57:56;;;;;;;13.45;2.25;;;;;;;9.26;100.00;102571.63;5051417;28;20044;-67
2021/04/23 01:00:23;;;;;;;11.93;2.47;;;;;;;9.26;100.00;102566.16;5051373;28;20563;-73
2021/04/23 01:02:49;;;;;;;13.35;2.38;;;;;;;9.26;100.00;102571.63;5051178;28;20392;-68
2021/04/23 01:05:16;;;;;;;15.27;3.00;;;;;;;9.25;100.00;102563.63;5051132;28;20036;-72
2021/04/23 01:07:44;;;;;;;13.85;2.55;;;;;;;9.24;100.00;102570.97;5050914;28;20086;-69
2021/04/23 01:10:10;;;;;;;19.45;3.05;;;;;;;9.25;100.00;102561.75;5051027;28;20128;-70
2021/04/23 01:12:36;;;;;;;19.08;2.88;;;;;;;9.24;100.00;102562.78;5051148;28;20037;-69
2021/04/23 01:15:03;;;;;;;26.73;4.57;;;;;;;9.25;100.00;102569.94;5050932;28;20043;-67
2021/04/23 01:17:29;;;;;;;15.55;3.25;;;;;;;9.26;100.00;102571.63;5051158;28;20850;-67
2021/04/23 01:19:55;;;;;;;15.00;3.10;;;;;;;9.25;100.00;102567.22;5050851;28;20040;-70
2021/04/23 01:22:21;;;;;;;15.93;3.15;;;;;;;9.24;100.00;102562.78;5050818;28;20091;-68
2021/04/23 01:24:47;;;;;;;21.92;2.78;;;;;;;9.24;100.00;102561.94;5050752;28;20044;-68
2021/04/23 01:27:12;;;;;;;14.32;2.67;;;;;;;9.23;100.00;102566.56;5050820;28;20045;-67
2021/04/23 01:29:38;;;;;;;24.83;3.10;;;;;;;9.23;100.00;102572.00;5050875;28;20045;-67
2021/04/23 01:32:04;;;;;;;20.45;3.55;;;;;;;9.22;100.00;102550.41;5050890;28;20047;-69
2021/04/23 01:34:34;;;;;;;19.45;3.60;;;;;;;9.21;100.00;102563.19;5050735;28;20037;-70
2021/04/23 01:37:03;;;;;;;16.88;3.20;;;;;;;9.20;100.00;102566.94;5050753;28;20492;-70
2021/04/23 01:39:30;;;;;;;19.77;3.67;;;;;;;9.19;100.00;102558.94;5048923;28;20406;-67
2021/04/23 01:41:57;;;;;;;16.20;4.10;;;;;;;9.18;100.00;102562.69;5049187;28;20415;-66
2021/04/23 01:44:25;;;;;;;17.90;4.15;;;;;;;9.17;100.00;102572.75;5049200;28;20415;-71
2021/04/23 01:46:52;;;;;;;17.50;3.67;;;;;;;9.15;100.00;102569.38;5050734;28;20028;-73
2021/04/23 01:49:20;;;;;;;21.08;3.92;;;;;;;9.13;100.00;102566.00;5050681;28;20063;-68
2021/04/23 01:51:53;;;;;;;21.10;3.80;;;;;;;9.12;100.00;102564.31;5050476;28;20127;-66
2021/04/23 01:54:19;;;;;;;21.35;3.63;;;;;;;9.10;100.00;102566.38;5050623;28;20037;-69
2021/04/23 01:56:46;;;;;;;21.58;4.05;;;;;;;9.09;100.00;102564.69;5050627;28;20434;-69
2021/04/23 01:59:13;;;;;;;23.67;4.05;;;;;;;9.09;100.00;102561.97;5049173;28;20055;-71
2021/04/23 02:01:39;;;;;;;23.10;4.45;;;;;;;9.04;100.00;102572.59;5050397;28;20392;-70
2021/04/23 02:04:06;;;;;;;14.90;4.07;;;;;;;9.05;100.00;102568.84;5050328;28;20033;-65
2021/04/23 02:06:32;;;;;;;24.17;4.28;;;;;;;9.02;100.00;102580.97;5050620;28;20395;-67
2021/04/23 02:08:58;;;;;;;24.05;4.40;;;;;;;9.02;100.00;102580.09;5050626;28;20037;-71
2021/04/23 02:11:24;;;;;;;25.20;4.43;;;;;;;9.01;100.00;102586.59;5050412;28;20080;-69
2021/04/23 02:13:52;;;;;;;27.20;4.40;;;;;;;8.99;100.00;102580.47;5050330;28;20521;-69
2021/04/23 02:16:19;;;;;;;20.38;4.32;;;;;;;8.97;100.00;102582.56;5050370;28;20115;-68
2021/04/23 02:18:46;;;;;;;27.35;4.65;;;;;;;8.96;100.00;102586.31;5050357;28;20068;-69
2021/04/23 02:21:13;;;;;;;35.22;5.18;;;;;;;8.95;100.00;102576.44;5050255;28;20032;-72
2021/04/23 02:23:43;;;;;;;32.92;4.78;;;;;;;8.94;100.00;102588.41;5050195;28;20469;-69
2021/04/23 02:26:09;;;;;;;23.55;4.47;;;;;;;8.92;100.00;102585.84;5050431;28;20033;-70
2021/04/23 02:28:35;;;;;;;21.80;5.28;;;;;;;8.89;100.00;102580.78;5050304;28;20040;-69
2021/04/23 02:31:11;;;;;;;19.60;4.70;;;;;;;8.88;100.00;102595.44;5049988;28;20037;-66
2021/04/23 02:33:37;;;;;;;25.60;4.53;;;;;;;8.87;100.00;102587.47;5050204;28;20440;-73
2021/04/23 02:36:04;;;;;;;29.73;7.13;;;;;;;8.85;100.00;102600.41;5050336;28;20635;-67
2021/04/23 02:38:30;;;;;;;30.02;4.97;;;;;;;8.84;100.00;102601.44;5050251;28;20432;-68
2021/04/23 02:40:56;;;;;;;26.50;4.75;;;;;;;8.83;100.00;102599.75;5050146;28;20128;-67
2021/04/23 02:43:32;;;;;;;23.38;5.72;;;;;;;8.82;100.00;102589.88;5050167;28;20123;-69
2021/04/23 02:46:00;;;;;;;26.17;5.35;;;;;;;8.81;100.00;102599.09;5049981;28;20028;-71
2021/04/23 02:48:29;;;;;;;17.20;4.68;;;;;;;8.80;100.00;102597.41;5050051;28;20052;-70
2021/04/23 02:51:13;;;;;;;26.20;4.68;;;;;;;8.77;100.00;102615.81;5050390;28;20063;-72
2021/04/23 02:53:39;;;;;;;29.02;5.35;;;;;;;8.75;100.00;102598.81;5053739;28;20037;-68
2021/04/23 02:56:06;;;;;;;28.92;6.25;;;;;;;8.75;100.00;102590.66;5053586;28;20459;-68
2021/04/23 02:58:32;;;;;;;28.00;5.80;;;;;;;8.74;100.00;102605.31;5053637;28;20045;-71
2021/04/23 03:01:01;;;;;;;34.92;6.13;;;;;;;8.72;100.00;102596.47;5053438;28;20105;-71
2021/04/23 03:03:28;;;;;;;32.35;6.07;;;;;;;8.71;100.00;102616.59;5053451;28;20033;-67
2021/04/23 03:05:55;;;;;;;37.20;6.40;;;;;;;8.67;100.00;102598.91;5053359;28;20402;-69
2021/04/23 03:08:21;;;;;;;33.47;6.10;;;;;;;8.67;100.00;102601.63;5053578;28;20040;-68
2021/04/23 03:10:52;;;;;;;30.88;7.55;;;;;;;8.65;100.00;102595.50;5053295;28;20114;-67
2021/04/23 03:13:25;;;;;;;33.03;6.53;;;;;;;8.63;100.00;102602.19;5053349;28;20043;-68
2021/04/23 03:15:52;;;;;;;36.10;7.18;;;;;;;8.60;100.00;102595.22;5053220;28;20487;-66
2021/04/23 03:18:23;;;;;;;40.35;7.00;;;;;;;8.58;100.00;102605.47;5053245;28;20098;-68
2021/04/23 03:20:52;;;;;;;37.92;7.05;;;;;;;8.57;100.00;102602.94;5053123;28;20120;-71
2021/04/23 03:23:18;;;;;;;25.27;6.63;;;;;;;8.56;100.00;102601.25;5053032;28;20555;-69
2021/04/23 03:25:44;;;;;;;26.48;6.82;;;;;;;8.54;100.00;102598.72;5052979;28;20025;-69
2021/04/23 03:28:10;;;;;;;36.22;7.43;;;;;;;8.53;100.00;102605.19;5051826;28;20040;-71
2021/04/23 03:30:39;;;;;;;25.77;8.13;;;;;;;8.51;100.00;102601.81;5052895;28;20036;-69
2021/04/23 03:33:06;;;;;;;34.13;7.55;;;;;;;8.51;100.00;102599.09;5052999;28;20037;-69
2021/04/23 03:35:32;;;;;;;29.67;7.63;;;;;;;8.51;100.00;102609.13;5052846;28;20518;-67
2021/04/23 03:37:58;;;;;;;31.52;8.05;;;;;;;8.49;100.00;102606.56;5052782;28;20076;-67
2021/04/23 03:40:26;;;;;;;42.03;9.45;;;;;;;8.47;100.00;102603.19;5052867;28;20503;-68
2021/04/23 03:42:51;;;;;;;33.45;7.72;;;;;;;8.48;100.00;102615.78;5052930;28;20074;-69
2021/04/23 03:45:21;;;;;;;30.95;8.32;;;;;;;8.49;100.00;102625.63;5052720;28;20064;-69
2021/04/23 03:47:47;;;;;;;28.85;8.98;;;;;;;8.48;100.00;102621.22;5052709;28;20036;-69
2021/04/23 03:50:16;;;;;;;31.50;8.07;;;;;;;8.44;100.00;102604.41;5052414;28;20044;-66
2021/04/23 03:52:42;;;;;;;34.83;9.63;;;;;;;8.47;100.00;102619.53;5052701;28;20061;-66
2021/04/23 03:55:17;;;;;;;36.83;11.20;;;;;;;8.45;100.00;102617.00;5052446;28;20033;-68
2021/04/23 03:57:43;;;;;;;37.03;11.00;;;;;;;8.44;100.00;102609.84;5052632;28;20029;-66
2021/04/23 04:00:13;;;;;;;33.90;9.23;;;;;;;8.45;100.00;102610.69;5052448;28;20075;-66
2021/04/23 04:02:39;;;;;;;30.20;9.82;;;;;;;8.45;100.00;102613.44;5052042;28;20032;-67
2021/04/23 04:05:07;;;;;;;40.55;10.13;;;;;;;8.45;100.00;102610.69;5052375;28;20033;-67
2021/04/23 04:07:33;;;;;;;38.13;9.55;;;;;;;8.43;100.00;102610.03;5052598;28;20029;-67
2021/04/23 04:09:59;;;;;;;38.65;9.30;;;;;;;8.43;100.00;102610.03;5052465;28;20037;-68
2021/04/23 04:12:25;;;;;;;49.20;12.00;;;;;;;8.43;100.00;102612.78;5052204;28;20040;-68
2021/04/23 04:14:51;;;;;;;37.00;11.98;;;;;;;8.41;100.00;102610.22;5052093;28;20068;-66
2021/04/23 04:17:16;;;;;;;43.45;11.52;;;;;;;8.42;100.00;102616.53;5052095;28;20063;-68
2021/04/23 04:19:43;;;;;;;43.22;11.65;;;;;;;8.42;100.00;102616.53;5052010;28;20029;-69
2021/04/23 04:22:08;;;;;;;42.15;11.32;;;;;;;8.41;100.00;102610.22;5051875;28;20094;-68
2021/04/23 04:24:34;;;;;;;36.28;10.65;;;;;;;8.41;100.00;102609.38;5051911;28;20049;-71
2021/04/23 04:27:00;;;;;;;45.70;12.32;;;;;;;8.41;100.00;102614.84;5051952;28;20041;-66
2021/04/23 04:29:26;;;;;;;44.53;12.75;;;;;;;8.41;100.00;102607.50;5051906;28;20041;-69
2021/04/23 04:31:53;;;;;;;44.08;12.35;;;;;;;8.40;100.00;102607.69;5050277;28;20041;-69
2021/04/23 04:34:19;;;;;;;40.75;13.02;;;;;;;8.39;100.00;102600.56;5051714;28;20057;-69
2021/04/23 04:36:45;;;;;;;51.80;14.93;;;;;;;8.39;100.00;102611.44;5050527;28;20041;-65
2021/04/23 04:39:12;;;;;;;42.00;13.50;;;;;;;8.38;100.00;102607.88;5051724;28;20044;-71
2021/04/23 04:41:38;;;;;;;44.72;12.77;;;;;;;8.39;100.00;102614.19;5051563;28;20242;-71
2021/04/23 04:44:05;;;;;;;49.38;14.40;;;;;;;8.38;100.00;102616.06;5051447;28;20041;-71
2021/04/23 04:46:30;;;;;;;42.63;12.88;;;;;;;8.39;100.00;102611.44;5051610;28;20037;-67
2021/04/23 04:48:56;;;;;;;38.92;12.82;;;;;;;8.38;100.00;102616.06;5051714;28;20420;-71
2021/04/23 04:51:22;;;;;;;46.72;14.15;;;;;;;8.39;100.00;102606.84;5051289;28;20183;-69
2021/04/23 04:53:47;;;;;;;45.60;13.88;;;;;;;8.38;100.00;102609.75;5051392;28;20040;-71
2021/04/23 04:56:15;;;;;;;40.67;13.60;;;;;;;8.38;100.00;102612.47;5050126;28;20045;-68
2021/04/23 04:58:42;;;;;;;40.72;13.70;;;;;;;8.39;100.00;102600.56;5050140;28;20036;-71
2021/04/23 05:01:08;;;;;;;43.28;13.77;;;;;;;8.39;100.00;102608.72;5051141;28;20203;-66
2021/04/23 05:03:37;;;;;;;41.67;13.65;;;;;;;8.40;100.00;102610.41;5051140;28;20044;-69
2021/04/23 05:06:04;;;;;;;43.85;15.35;;;;;;;8.39;100.00;102606.84;5051387;28;20033;-69
2021/04/23 05:08:29;;;;;;;45.88;14.35;;;;;;;8.41;100.00;102606.66;5051185;28;20037;-73
2021/04/23 05:10:55;;;;;;;41.25;14.20;;;;;;;8.41;100.00;102606.66;5051105;28;20386;-66
2021/04/23 05:13:20;;;;;;;52.78;15.55;;;;;;;8.41;100.00;102604.78;5050771;28;20037;-66
2021/04/23 05:15:46;;;;;;;54.65;15.85;;;;;;;8.41;100.00;102599.34;5049445;28;20045;-69
2021/04/23 05:18:12;;;;;;;49.55;14.63;;;;;;;8.42;100.00;102605.63;5051054;28;20047;-69
2021/04/23 05:20:38;;;;;;;54.08;15.35;;;;;;;8.42;100.00;102606.47;5050985;28;20047;-67
2021/04/23 05:23:04;;;;;;;51.63;14.10;;;;;;;8.45;100.00;102605.25;5050936;28;20119;-68
2021/04/23 05:25:30;;;;;;;44.25;15.30;;;;;;;8.44;100.00;102598.13;5049541;28;20119;-69
2021/04/23 05:27:57;;;;;;;44.58;15.15;;;;;;;8.45;100.00;102607.97;5050967;28;20040;-69
2021/04/23 05:30:26;;;;;;;45.50;14.55;;;;;;;8.47;100.00;102608.63;5050887;28;20040;-69
2021/04/23 05:32:54;;;;;;;45.85;15.00;;;;;;;8.49;100.00;102606.56;5050762;28;20392;-69
2021/04/23 05:35:21;;;;;;;67.40;15.48;;;;;;;8.50;100.00;102601.97;5050788;28;20040;-71
2021/04/23 05:37:48;;;;;;;49.15;14.57;;;;;;;8.52;100.00;102617.13;5050707;28;20039;-69
2021/04/23 05:40:18;;;;;;;46.63;14.20;;;;;;;8.53;100.00;102602.47;5050689;28;20032;-69
2021/04/23 05:42:44;;;;;;;46.30;14.00;;;;;;;8.55;100.00;102610.44;5050545;28;20033;-70
2021/04/23 05:45:12;;;;;;;43.55;14.80;;;;;;;8.55;100.00;102603.13;5050678;28;20549;-67
2021/04/23 05:47:39;;;;;;;54.05;14.55;;;;;;;8.58;100.00;102620.97;5051121;28;20040;-68
2021/04/23 05:50:07;;;;;;;44.03;15.05;;;;;;;8.60;100.00;102613.47;5050573;28;20049;-69
2021/04/23 05:52:33;;;;;;;43.13;15.32;;;;;;;8.63;100.00;102613.09;5050628;28;20033;-69
2021/04/23 05:54:59;;;;;;;60.55;15.02;;;;;;;8.65;100.00;102611.00;5050992;28;20041;-67
2021/04/23 05:57:25;;;;;;;43.03;14.60;;;;;;;8.67;100.00;102622.56;5050547;28;20060;-67
2021/04/23 05:59:51;;;;;;;43.22;13.60;;;;;;;8.70;100.00;102625.78;5050587;28;20041;-68
2021/04/23 06:02:16;;;;;;;40.60;14.48;;;;;;;8.73;100.00;102624.56;5048933;28;20048;-66
2021/04/23 06:04:44;;;;;;;50.75;15.13;;;;;;;8.76;100.00;102637.81;5050376;28;20503;-70
2021/04/23 06:07:09;;;;;;;54.95;16.17;;;;;;;8.78;100.00;102633.00;5050470;28;20032;-73
2021/04/23 06:09:35;;;;;;;50.50;14.55;;;;;;;8.83;100.00;102635.16;5050497;28;20111;-70
2021/04/23 06:12:01;;;;;;;48.60;15.38;;;;;;;8.85;100.00;102635.81;5050355;28;20387;-71
2021/04/23 06:14:27;;;;;;;49.70;15.45;;;;;;;8.88;100.00;102633.59;5050287;28;20037;-70
2021/04/23 06:16:53;;;;;;;46.63;14.57;;;;;;;8.93;100.00;102638.47;5050498;28;20052;-66
2021/04/23 06:19:20;;;;;;;47.90;15.45;;;;;;;8.98;100.00;102627.84;5050399;28;20061;-69
2021/04/23 06:21:47;;;;;;;52.80;15.55;;;;;;;9.01;100.00;102628.31;5050232;28;20178;-68
2021/04/23 06:24:13;;;;;;;45.78;15.10;;;;;;;9.05;100.00;102626.09;5050380;28;20064;-67
2021/04/23 06:26:39;;;;;;;46.65;14.75;;;;;;;9.10;100.00;102620.91;5052144;28;20037;-69
2021/04/23 06:29:04;;;;;;;47.97;16.08;;;;;;;9.15;100.00;102617.59;5054079;28;20047;-68
2021/04/23 06:31:31;;;;;;;60.60;15.60;;;;;;;9.19;100.00;102619.75;5054281;28;20033;-69
2021/04/23 06:33:57;;;;;;;47.50;15.02;;;;;;;9.24;100.00;102622.78;5054052;28;20037;-69
2021/04/23 06:36:22;;;;;;;46.67;14.63;;;;;;;9.28;100.00;102624.09;5054057;28;20207;-68
2021/04/23 06:38:48;;;;;;;49.10;15.68;;;;;;;9.34;100.00;102619.75;5053963;28;20063;-66
2021/04/23 06:41:15;;;;;;;43.92;14.20;;;;;;;9.39;100.00;102627.38;5053846;28;20065;-69
2021/04/23 06:43:43;;;;;;;45.42;14.88;;;;;;;9.44;100.00;102611.28;5053805;28;20041;-71
2021/04/23 06:46:09;;;;;;;45.00;15.73;;;;;;;9.48;100.00;102623.47;5053800;28;20495;-68
2021/04/23 06:48:35;;;;;;;38.45;15.10;;;;;;;9.53;100.00;102621.03;5053826;28;20051;-68
2021/04/23 06:51:04;;;;;;;54.97;15.73;;;;;;;9.58;100.00;102618.56;5053609;28;20053;-67
2021/04/23 06:53:30;;;;;;;49.83;16.30;;;;;;;9.63;100.00;102627.03;5053821;28;20037;-67
2021/04/23 06:55:56;;;;;;;41.40;15.80;;;;;;;9.68;100.00;102628.13;5053559;28;20132;-67
2021/04/23 06:58:22;;;;;;;44.70;14.02;;;;;;;9.74;100.00;102629.25;5053903;28;20037;-69
2021/04/23 07:00:48;;;;;;;44.28;15.05;;;;;;;9.79;100.00;102615.88;5053797;28;20036;-68
2021/04/23 07:03:13;;;;;;;55.92;15.90;;;;;;;9.85;100.00;102623.28;5053394;28;20041;-68
2021/04/23 07:05:42;;;;;;;45.72;15.18;;;;;;;9.89;100.00;102619.16;5053412;28;20037;-67
2021/04/23 07:08:07;;;;;;;50.08;14.68;;;;;;;9.95;100.00;102628.44;5053452;28;20025;-67
2021/04/23 07:10:33;;;;;;;42.30;14.65;;;;;;;9.99;100.00;102621.53;5053226;28;20049;-69
2021/04/23 07:12:59;;;;;;;54.03;15.93;;;;;;;10.04;100.00;102618.22;5053368;28;20041;-66
2021/04/23 07:15:27;;;;;;;44.90;15.40;;;;;;;10.09;100.00;102626.69;5053523;28;20029;-68
2021/04/23 07:17:53;;;;;;;42.75;14.50;;;;;;;10.13;100.00;102617.06;5053290;28;20090;-69
2021/04/23 07:20:19;;;;;;;45.58;15.05;;;;;;;10.19;100.00;102621.72;5053199;28;20041;-70
2021/04/23 07:22:46;;;;;;;42.70;15.43;;;;;;;10.26;100.00;102628.13;5053045;28;20039;-68
2021/04/23 07:25:12;;;;;;;41.20;15.05;;;;;;;10.32;100.00;102621.88;5053185;28;20114;-70
2021/04/23 07:27:39;;;;;;;52.03;14.90;;;;;;;10.37;100.00;102613.94;5053179;28;20033;-70
2021/04/23 07:30:08;;;;;;;39.83;14.63;;;;;;;10.42;100.00;102624.28;5053057;28;20037;-70
2021/04/23 07:32:34;;;;;;;37.22;14.05;;;;;;;10.48;100.00;102621.59;5053395;28;20037;-67
2021/04/23 07:34:59;;;;;;;40.92;14.15;;;;;;;10.54;100.00;102620.78;5052752;28;20033;-70
2021/04/23 07:37:25;;;;;;;50.67;14.43;;;;;;;10.59;100.00;102622.94;5052245;28;20051;-70
2021/04/23 07:39:51;;;;;;;35.30;14.85;;;;;;;10.62;100.00;102627.16;5052833;28;20036;-67
2021/04/23 07:42:17;;;;;;;43.20;14.30;;;;;;;10.67;100.00;102630.13;5052748;28;20095;-68
2021/04/23 07:44:43;;;;;;;42.17;14.23;;;;;;;10.76;100.00;102635.28;5052650;28;20029;-71
2021/04/23 07:47:09;;;;;;;43.42;14.90;;;;;;;10.78;100.00;102626.88;5052977;28;20103;-71
2021/04/23 07:49:35;;;;;;;34.15;13.75;;;;;;;10.88;100.00;102619.13;5052076;28;20063;-66
2021/04/23 07:52:02;;;;;;;51.40;14.75;;;;;;;10.96;100.00;102629.94;5052096;28;20052;-70
2021/04/23 07:54:27;;;;;;;33.42;14.13;;;;;;;11.04;100.00;102621.53;5052313;28;20584;-65
2021/04/23 07:56:53;;;;;;;50.78;15.38;;;;;;;11.14;100.00;102626.66;5052438;28;20041;-75
2021/04/23 07:59:19;;;;;;;38.65;13.73;;;;;;;11.23;100.00;102635.53;5046212;28;20032;-66
2021/04/23 08:01:44;;;;;;;46.42;14.25;;;;;;;11.31;100.00;102621.69;5051634;28;20183;-65
2021/04/23 08:04:10;;;;;;;41.47;13.52;;;;;;;11.37;100.00;102632.66;5040476;28;20057;-63
2021/04/23 08:06:35;;;;;;;43.88;13.63;;;;;;;11.39;100.00;102622.34;5048889;28;20040;-65
2021/04/23 08:09:02;;;;;;;42.03;14.23;;;;;;;11.45;100.00;102631.63;5051892;28;20068;-67
2021/04/23 08:11:27;;;;;;;46.08;14.38;;;;;;;11.46;100.00;102631.44;5051876;28;20041;-62
2021/04/23 08:13:54;;;;;;;47.33;13.15;;;;;;;11.57;100.00;102627.25;5052057;28;20041;-70
2021/04/23 08:16:20;;;;;;;42.78;14.15;;;;;;;11.68;100.00;102634.88;5041116;28;20109;-64
2021/04/23 08:18:51;;;;;;;42.08;13.68;;;;;;;11.77;100.00;102636.38;5045390;28;20639;-67
2021/04/23 08:21:18;;;;;;;42.10;13.80;;;;;;;11.83;100.00;102622.97;5047788;28;20041;-65
2021/04/23 08:23:46;;;;;;;40.50;13.00;;;;;;;11.89;100.00;102624.88;5051297;28;20479;-68
2021/04/23 08:26:12;;;;;;;46.08;14.40;;;;;;;11.93;100.00;102626.97;5050611;28;20033;-66
2021/04/23 08:28:38;;;;;;;41.75;14.23;;;;;;;11.91;100.00;102629.06;5051829;28;20045;-65
2021/04/23 08:31:03;;;;;;;43.15;13.77;;;;;;;11.94;100.00;102628.66;5051311;28;20044;-62
2021/04/23 08:33:29;;;;;;;38.40;12.93;;;;;;;12.04;100.00;102617.31;5039131;28;20104;-70
2021/04/23 08:35:55;;;;;;;42.65;13.73;;;;;;;12.14;100.00;102625.94;5031923;28;20041;-67
2021/04/23 08:38:24;;;;;;;35.42;12.02;;;;;;;12.20;100.00;102616.91;5030939;28;20037;-69
2021/04/23 08:40:54;;;;;;;37.17;12.57;;;;;;;12.26;100.00;102618.78;5047756;28;20039;-69
2021/04/23 08:43:20;;;;;;;39.90;13.82;;;;;;;12.30;100.00;102620.06;4128584;28;10000901;-67
2021/04/23 08:45:46;;;;;;;39.38;12.18;;;;;;;12.33;100.00;102611.44;5010507;28;20060;-68
2021/04/23 08:48:12;;;;;;;49.92;13.23;;;;;;;12.38;100.00;102622.59;5010569;28;20030;-66
2021/04/23 08:50:38;;;;;;;32.63;11.95;;;;;;;12.48;100.00;102624.91;5007011;28;20050;-68
2021/04/23 08:53:05;;;;;;;45.35;12.52;;;;;;;12.49;100.00;102625.75;5011095;28;20499;-67
2021/04/23 08:55:31;;;;;;;39.20;12.82;;;;;;;12.53;100.00;102610.59;4092788;28;10000891;-69
2021/04/23 08:57:57;;;;;;;44.90;12.90;;;;;;;12.56;100.00;102615.66;4992182;28;20045;-63
2021/04/23 09:00:23;;;;;;;35.63;11.93;;;;;;;12.56;100.00;102621.13;5011544;28;20046;-60
2021/04/23 09:02:49;;;;;;;30.00;11.77;;;;;;;12.69;100.00;102615.63;5011307;28;20060;-59
2021/04/23 09:05:16;;;;;;;32.05;10.93;;;;;;;12.71;100.00;102616.25;5021134;28;20590;-61
2021/04/23 09:07:41;;;;;;;37.38;11.85;;;;;;;12.75;100.00;102606.53;4991042;28;20034;-60
2021/04/23 09:10:09;;;;;;;44.97;13.63;;;;;;;12.76;100.00;102621.94;5009662;28;20065;-62
2021/04/23 09:12:36;;;;;;;34.80;13.15;;;;;;;12.79;100.00;102617.94;5009211;28;20120;-62
2021/04/23 09:15:03;;;;;;;39.00;12.68;;;;;;;12.90;100.00;102615.38;4999174;28;20049;-60
2021/04/23 09:17:30;;;;;;;39.15;12.80;;;;;;;12.96;100.00;102606.28;5006548;28;20038;-60
2021/04/23 09:19:57;;;;;;;36.65;11.85;;;;;;;13.02;100.00;102617.47;5010638;28;20435;-61
2021/04/23 09:22:32;;;;;;;42.00;12.20;;;;;;;13.10;100.00;102617.22;5008850;28;20077;-61
2021/04/23 09:25:12;;;;;;;37.13;12.30;;;;;;;13.21;100.00;102614.69;4999575;28;20723;-63
2021/04/23 09:27:41;;;;;;;41.20;11.95;;;;;;;13.32;100.00;102615.91;5010006;28;20065;-58
2021/04/23 09:30:09;;;;;;;35.25;12.32;;;;;;;13.33;100.00;102606.59;5009547;28;20408;-61
2021/04/23 09:32:42;;;;;;;38.05;12.40;;;;;;;13.38;100.00;102604.06;5010309;28;20491;-61
2021/04/23 09:35:19;;;;;;;32.55;11.75;;;;;;;13.41;100.00;102600.91;5009292;28;20030;-61
2021/04/23 09:37:53;;;;;;;31.45;11.25;;;;;;;13.50;100.00;102607.81;5009318;28;20534;-60
2021/04/23 09:40:28;;;;;;;40.80;11.32;;;;;;;13.50;100.00;102602.31;5005449;28;20087;-62
2021/04/23 09:43:05;;;;;;;33.17;10.70;;;;;;;13.56;100.00;102601.44;5008216;28;20473;-62
2021/04/23 09:45:46;;;;;;;34.35;10.25;;;;;;;13.56;100.00;102584.97;4989414;28;20034;-61
2021/04/23 09:48:24;;;;;;;26.80;9.27;;;;;;;13.68;100.00;102592.50;4991076;28;20121;-61
2021/04/23 09:50:50;;;;;;;45.10;12.02;;;;;;;13.63;100.00;102595.06;4988780;28;20059;-60
2021/04/23 09:53:16;;;;;;;32.35;9.73;;;;;;;13.80;100.00;102596.25;5008083;28;20091;-62
2021/04/23 09:55:42;;;;;;;36.40;11.23;;;;;;;13.87;100.00;102589.63;5010260;28;20042;-60
2021/04/23 09:58:09;;;;;;;38.25;11.02;;;;;;;13.86;100.00;102584.34;5007819;28;20045;-60
2021/04/23 10:00:39;;;;;;;24.58;10.00;;;;;;;13.88;100.00;102598.72;5010274;28;20388;-61
2021/04/23 10:03:07;;;;;;;25.65;10.32;;;;;;;13.94;100.00;102588.75;4997546;28;20041;-62
2021/04/23 10:05:43;;;;;;;30.65;10.75;;;;;;;14.00;100.00;102585.94;5013503;28;20493;-61
2021/04/23 10:08:30;;;;;;;30.40;9.75;;;;;;;14.05;100.00;102588.88;5012988;28;20037;-62
2021/04/23 10:10:58;;;;;;;35.13;11.07;;;;;;;14.02;100.00;102589.31;4993296;28;20066;-61
2021/04/23 10:13:29;;;;;;;37.30;11.13;;;;;;;14.02;100.00;102578.31;5013103;28;20042;-61
2021/04/23 10:15:55;;;;;;;31.38;11.18;;;;;;;14.06;100.00;102593.31;5013515;28;20465;-60
2021/04/23 10:18:20;;;;;;;40.60;11.75;;;;;;;14.10;100.00;102564.31;5013790;28;20045;-63
2021/04/23 10:20:48;;;;;;;36.22;11.18;;;;;;;14.22;100.00;102588.31;5012266;28;20480;-62
2021/04/23 10:23:18;;;;;;;36.35;11.43;;;;;;;14.28;100.00;102592.94;5007986;28;20503;-62
2021/04/23 10:25:45;;;;;;;41.13;12.27;;;;;;;14.36;100.00;102595.41;4994432;28;20481;-63
2021/04/23 10:28:16;;;;;;;37.25;11.95;;;;;;;14.37;100.00;102597.06;4994871;28;20046;-62
2021/04/23 10:30:44;;;;;;;38.72;11.45;;;;;;;14.35;100.00;102590.97;4994929;28;20042;-63
2021/04/23 10:33:12;;;;;;;40.15;11.70;;;;;;;14.51;100.00;102600.59;5005146;28;20485;-62
2021/04/23 10:35:40;;;;;;;34.95;11.68;;;;;;;14.64;100.00;102593.06;5014456;28;20026;-62
2021/04/23 10:38:09;;;;;;;34.88;12.40;;;;;;;14.74;100.00;102593.38;5013423;28;20116;-63
2021/04/23 10:40:37;;;;;;;40.75;13.88;;;;;;;14.78;100.00;102586.38;5013758;28;20045;-64
2021/04/23 10:43:08;;;;;;;30.63;12.75;;;;;;;14.77;100.00;102583.84;5013444;28;20038;-62
2021/04/23 10:45:38;;;;;;;36.03;13.32;;;;;;;14.75;100.00;102589.56;5014217;28;20041;-61
2021/04/23 10:48:32;;;;;;;32.17;13.88;;;;;;;14.92;100.00;102588.94;5014342;28;20052;-62
2021/04/23 10:51:10;;;;;;;33.22;12.63;;;;;;;15.03;100.00;102585.44;5020117;28;20054;-63
2021/04/23 10:53:45;;;;;;;35.17;13.27;;;;;;;15.20;100.00;102578.25;5013756;28;20033;-63
2021/04/23 10:56:26;;;;;;;35.10;12.90;;;;;;;15.32;100.00;102581.91;5010804;28;20091;-64
2021/04/23 10:58:53;;;;;;;43.58;14.60;;;;;;;15.33;100.00;102597.38;5013982;28;20036;-62
2021/04/23 11:01:18;;;;;;;37.67;14.95;;;;;;;15.36;100.00;102590.56;5013854;28;20057;-64
2021/04/23 11:03:56;;;;;;;39.13;13.52;;;;;;;15.44;100.00;102579.19;5013757;28;20081;-65
2021/04/23 11:06:21;;;;;;;43.58;14.32;;;;;;;15.42;100.00;102584.09;5013253;28;20030;-62
2021/04/23 11:08:59;;;;;;;42.20;14.73;;;;;;;15.45;100.00;102583.66;5013949;28;20030;-62
2021/04/23 11:11:39;;;;;;;41.45;13.73;;;;;;;15.58;100.00;102577.13;5013010;28;20030;-64